Gondar, Ethiopia
Current Conditions -  °F | °C
As of 12:00 AM on Tuesday 21 Oct 2014 (Local Time) from HAAB Reporting Station
Scattered Clouds Scattered Clouds  
Wind Chill: 59°   Ceiling: Unl
Heat Index: 59°   Visibility: 6mi
Dew Point: 50°   Wind: 5mph
Humidity: 72%   Direction: 360°N
Pressure: 30.36"   Gusts: NA
Location:  12.61°N, 37.46°E
Report Text: HAAB 202100Z 36004KT 9999 SCT025 15/10 Q1028
Loading
Personal Weather Stations






























Interactive Weather Map
Tropical Storm Tracking
New forecast layout! Learn more

10-Day Weather Forecast

Advertisements
Track Severe Weather on mobile